Terminal Aerodrome Forecast
Issued by NWS

Home | Current Version | Previous Version | Text Only | Print | Product List | Glossary On
Versions: 1 2 3 4 5 6 7 8 9 10 11 12 13 14 15 16
732
FTUS42 KJAX 172343
TAFVQQ
TAF
KVQQ 172343Z 1800/1824 21003KT P6SM FEW040 SCT250
     FM180400 00000KT 5SM BR FEW030 SCT120
     FM180700 00000KT 3SM BR SCT010 SCT100
     FM181400 24005KT P6SM SCT025 BKN040=

USA.gov is the U.S. government's official web portal to all federal, state and local government web resources and services.